createdAt,value
2023-05-19T04:21:09.270Z,9.43
2023-05-19T04:24:23.823Z,9.48
2023-05-19T04:27:39.216Z,10.93
2023-05-19T04:30:53.680Z,10.18
2023-05-19T04:34:10.277Z,9.00
2023-05-19T04:37:26.056Z,10.90
2023-05-19T04:40:42.744Z,7.75
2023-05-19T04:43:57.775Z,8.75
2023-05-19T04:47:12.412Z,7.75
2023-05-19T04:50:26.798Z,10.38
2023-05-19T04:53:42.840Z,8.73
2023-05-19T04:57:00.906Z,9.30
2023-05-19T05:00:39.054Z,7.75
2023-05-19T05:07:54.989Z,8.95
2023-05-19T05:15:42.292Z,8.20
2023-05-19T05:19:04.423Z,10.82
2023-05-19T05:22:38.201Z,9.63
2023-05-19T05:26:20.632Z,11.55
2023-05-19T05:29:57.412Z,8.85
2023-05-19T05:33:19.114Z,11.35
2023-05-19T05:36:46.880Z,11.60
2023-05-19T05:40:08.259Z,10.98
2023-05-19T05:43:53.234Z,11.70
2023-05-19T06:07:11.398Z,14.05
2023-05-19T06:10:53.641Z,16.58
2023-05-19T06:14:08.545Z,11.02
2023-05-19T06:21:14.707Z,12.13
2023-05-19T06:24:54.824Z,14.93
2023-05-19T06:32:42.868Z,13.88
2023-05-19T06:36:02.565Z,13.80
2023-05-19T06:39:48.297Z,11.98
2023-05-19T06:43:17.215Z,14.90
2023-05-19T06:46:39.225Z,15.20
2023-05-19T06:50:29.015Z,13.85
2023-05-19T06:54:05.891Z,13.02
2023-05-19T06:57:30.866Z,11.70
2023-05-19T07:01:02.259Z,13.98
2023-05-19T07:08:34.294Z,12.52
2023-05-19T07:12:25.821Z,16.35
2023-05-19T07:15:46.882Z,14.65
2023-05-19T07:19:21.375Z,12.57
2023-05-19T07:27:16.208Z,13.43
2023-05-19T07:35:05.549Z,14.20
2023-05-19T07:38:30.741Z,16.27
2023-05-19T07:42:02.394Z,16.62
2023-05-19T07:45:43.516Z,13.62
2023-05-19T07:49:08.364Z,15.45
2023-05-19T07:52:38.978Z,15.02
2023-05-19T07:55:58.528Z,15.93
2023-05-19T07:59:23.553Z,12.80
2023-05-19T08:03:14.093Z,13.02
2023-05-19T08:06:28.594Z,15.48
2023-05-19T08:09:54.421Z,14.25
2023-05-19T08:13:17.652Z,13.82
2023-05-19T08:16:42.200Z,12.98
2023-05-19T08:24:21.383Z,14.07
2023-05-19T08:27:57.561Z,15.20
2023-05-19T08:31:25.109Z,13.07
2023-05-19T08:40:01.486Z,13.25
2023-05-19T08:43:47.440Z,12.63
2023-05-19T08:47:04.641Z,11.88
2023-05-19T08:54:37.684Z,10.35
2023-05-19T09:01:59.418Z,10.77
2023-05-19T09:09:10.919Z,11.15
2023-05-19T09:12:46.800Z,11.35
2023-05-19T09:16:13.850Z,12.55
2023-05-19T09:19:56.363Z,10.63
2023-05-19T09:27:34.341Z,10.07
2023-05-19T09:35:20.343Z,12.32
2023-05-19T09:38:41.668Z,10.57
2023-05-19T09:42:18.207Z,8.07
2023-05-19T09:58:17.911Z,8.48
2023-05-19T10:02:03.370Z,8.52
2023-05-19T10:05:39.748Z,9.05
2023-05-19T10:09:05.396Z,8.75
2023-05-19T10:12:33.024Z,7.18
2023-05-19T10:15:58.197Z,9.18
2023-05-19T10:27:12.017Z,8.60
2023-05-19T10:30:53.991Z,7.85
2023-05-19T10:34:43.559Z,6.85
2023-05-19T10:38:19.158Z,8.50
2023-05-19T10:41:43.011Z,7.15
2023-05-19T10:45:14.763Z,11.88
2023-05-19T10:48:55.706Z,9.65
2023-05-19T10:52:32.232Z,8.25
2023-05-19T10:56:08.407Z,7.18
2023-05-19T10:59:44.827Z,6.80
2023-05-19T11:03:17.013Z,8.13
2023-05-19T11:07:05.660Z,5.72
2023-05-19T11:10:39.492Z,5.28
2023-05-19T11:14:11.288Z,6.40
2023-05-19T11:17:27.750Z,5.50
2023-05-19T11:20:46.924Z,6.12
2023-05-19T11:24:08.107Z,6.22
2023-05-19T11:27:50.918Z,6.40
2023-05-19T11:31:36.863Z,7.78
2023-05-19T11:35:17.478Z,4.82
2023-05-19T11:38:31.736Z,6.03
2023-05-19T11:42:05.227Z,5.10
2023-05-19T11:45:40.495Z,4.62
2023-05-19T11:49:15.061Z,4.97
2023-05-19T11:52:38.062Z,4.25
2023-05-19T11:55:56.773Z,4.03
2023-05-19T12:02:51.568Z,3.90
2023-05-19T12:06:43.759Z,4.05
2023-05-19T12:10:25.306Z,4.93
2023-05-19T12:13:57.724Z,4.07
2023-05-19T12:17:27.333Z,5.15
2023-05-19T12:20:41.866Z,5.05
2023-05-19T12:23:56.749Z,4.22
2023-05-19T12:27:16.174Z,6.95
2023-05-19T12:30:30.854Z,5.37
2023-05-19T12:33:48.474Z,6.57
2023-05-19T12:37:06.579Z,4.18
2023-05-19T12:40:24.403Z,4.07
2023-05-19T12:43:42.612Z,4.95
2023-05-19T12:47:00.219Z,18.85
2023-05-19T12:50:16.386Z,3.97
2023-05-19T12:53:31.789Z,5.65
2023-05-19T12:57:04.207Z,4.87
2023-05-19T13:00:45.479Z,5.50
2023-05-19T13:04:05.375Z,4.30
2023-05-19T13:07:23.464Z,5.10
2023-05-19T13:10:39.660Z,4.05
2023-05-19T13:14:03.925Z,5.45
2023-05-19T13:17:21.098Z,4.40
2023-05-19T13:20:35.972Z,4.75
2023-05-19T13:23:52.563Z,4.97
2023-05-19T13:27:07.411Z,5.15
2023-05-19T13:30:24.730Z,4.57
2023-05-19T13:33:43.773Z,5.20
2023-05-19T13:37:10.026Z,6.70
2023-05-19T13:40:33.520Z,5.00
2023-05-19T13:43:48.654Z,4.60
2023-05-19T13:47:03.815Z,5.15
2023-05-19T13:50:20.286Z,9.32
2023-05-19T13:53:45.427Z,4.12
2023-05-19T13:57:10.038Z,4.75
2023-05-19T14:00:27.423Z,3.83
2023-05-19T14:03:41.759Z,4.25
2023-05-19T14:06:56.143Z,5.03
2023-05-19T14:10:11.294Z,7.35
2023-05-19T14:13:33.807Z,4.28
2023-05-19T14:16:50.746Z,4.55
2023-05-19T14:20:05.737Z,4.68
2023-05-19T14:23:21.759Z,4.12
2023-05-19T14:26:36.156Z,4.03
2023-05-19T14:29:51.935Z,5.12
2023-05-19T14:33:06.611Z,5.07
2023-05-19T14:36:21.130Z,4.30
2023-05-19T14:39:35.468Z,4.57
2023-05-19T14:42:49.776Z,6.05
2023-05-19T14:46:05.559Z,6.43
2023-05-19T14:49:19.844Z,7.93
2023-05-19T14:52:34.135Z,5.97
2023-05-19T14:55:49.391Z,6.10
2023-05-19T14:59:04.704Z,6.55
2023-05-19T15:06:58.060Z,5.75
